Time;durP1;ratioP1;P1;durP2;ratioP2;P2;SDS_P1;SDS_P2;PMS_P1;PMS_P2;Temp;Humidity;BMP_temperature;BMP_pressure;BME280_temperature;BME280_humidity;BME280_pressure;Samples;Min_cycle;Max_cycle;Signal;HPM_P1;HPM_P2
2022/04/20 00:02:19;;;;;;;9.43;6.07;;;;;;;;;;5114129;28;20051;-71
2022/04/20 00:04:46;;;;;;;11.52;5.70;;;;;;;;;;5114053;28;20027;-71
2022/04/20 00:07:13;;;;;;;12.23;5.72;;;;;;;;;;5114447;28;20024;-71
2022/04/20 00:09:40;;;;;;;13.75;6.68;;;;;;;;;;5114070;28;20020;-71
2022/04/20 00:12:07;;;;;;;11.30;5.88;;;;;;;;;;5110693;28;20024;-70
2022/04/20 00:14:34;;;;;;;15.00;6.00;;;;;;;;;;5108805;28;20031;-71
2022/04/20 00:17:00;;;;;;;9.83;5.73;;;;;;;;;;5108594;28;20047;-68
2022/04/20 00:19:27;;;;;;;10.73;5.45;;;;;;;;;;5108863;28;20540;-69
2022/04/20 00:21:54;;;;;;;9.77;6.07;;;;;;;;;;5108773;28;20095;-69
2022/04/20 00:24:21;;;;;;;13.17;5.47;;;;;;;;;;5112528;28;20019;-69
2022/04/20 00:26:47;;;;;;;8.67;5.73;;;;;;;;;;5113418;28;20479;-69
2022/04/20 00:29:14;;;;;;;11.27;6.47;;;;;;;;;;5113987;28;20024;-69
2022/04/20 00:31:41;;;;;;;13.00;6.60;;;;;;;;;;5113890;28;20099;-69
2022/04/20 00:34:08;;;;;;;9.80;5.97;;;;;;;;;;5113637;28;20054;-69
2022/04/20 00:36:34;;;;;;;7.53;5.27;;;;;;;;;;5111329;28;20020;-69
2022/04/20 00:39:01;;;;;;;11.13;5.60;;;;;;;;;;5108251;28;20792;-69
2022/04/20 00:41:28;;;;;;;7.70;5.70;;;;;;;;;;5108577;28;20019;-68
2022/04/20 00:43:55;;;;;;;11.03;6.00;;;;;;;;;;5108268;28;20482;-69
2022/04/20 00:46:25;;;;;;;11.83;6.17;;;;;;;;;;5108315;28;20076;-69
2022/04/20 00:48:52;;;;;;;9.87;5.73;;;;;;;;;;5110902;28;20020;-69
2022/04/20 00:51:20;;;;;;;8.80;6.03;;;;;;;;;;5113558;28;20023;-69
2022/04/20 00:53:46;;;;;;;13.73;5.27;;;;;;;;;;5113550;28;20374;-68
2022/04/20 00:56:13;;;;;;;12.13;6.07;;;;;;;;;;5113387;28;20541;-68
2022/04/20 00:58:41;;;;;;;10.07;5.97;;;;;;;;;;5113293;28;20035;-71
2022/04/20 01:01:09;;;;;;;9.13;5.97;;;;;;;;;;5110793;28;20032;-71
2022/04/20 01:03:36;;;;;;;9.10;6.40;;;;;;;;;;5107802;28;20486;-68
2022/04/20 01:06:03;;;;;;;11.27;6.50;;;;;;;;;;5107603;28;20039;-68
2022/04/20 01:08:30;;;;;;;11.67;5.43;;;;;;;;;;5107898;28;20022;-68
2022/04/20 01:10:57;;;;;;;14.57;5.60;;;;;;;;;;5107800;28;20030;-71
2022/04/20 01:13:24;;;;;;;10.40;5.73;;;;;;;;;;5110309;28;20066;-71
2022/04/20 01:15:51;;;;;;;11.13;7.00;;;;;;;;;;5112405;28;20498;-68
2022/04/20 01:18:18;;;;;;;12.23;6.33;;;;;;;;;;5112139;28;20036;-71
2022/04/20 01:20:45;;;;;;;11.53;6.90;;;;;;;;;;5112681;28;20038;-68
2022/04/20 01:23:12;;;;;;;10.60;6.97;;;;;;;;;;5112837;28;20037;-69
2022/04/20 01:25:39;;;;;;;9.53;5.57;;;;;;;;;;5111647;28;20031;-69
2022/04/20 01:28:06;;;;;;;9.27;6.30;;;;;;;;;;5107435;28;20039;-69
2022/04/20 01:30:33;;;;;;;12.17;7.77;;;;;;;;;;5107406;28;20024;-69
2022/04/20 01:33:00;;;;;;;11.40;7.10;;;;;;;;;;5107586;28;20370;-69
2022/04/20 01:35:27;;;;;;;9.50;6.93;;;;;;;;;;5107561;28;20023;-68
2022/04/20 01:37:54;;;;;;;13.00;7.47;;;;;;;;;;5109037;28;20016;-69
2022/04/20 01:40:21;;;;;;;13.20;7.67;;;;;;;;;;5112514;28;20427;-68
2022/04/20 01:42:48;;;;;;;12.23;7.27;;;;;;;;;;5112302;28;20026;-68
2022/04/20 01:45:15;;;;;;;11.83;7.27;;;;;;;;;;5112104;28;20167;-68
2022/04/20 01:47:42;;;;;;;12.83;6.53;;;;;;;;;;5112669;28;20031;-68
2022/04/20 01:50:09;;;;;;;15.03;6.93;;;;;;;;;;5112192;28;20031;-68
2022/04/20 01:52:36;;;;;;;13.73;7.63;;;;;;;;;;5106718;28;20055;-68
2022/04/20 01:55:03;;;;;;;12.07;8.70;;;;;;;;;;5107426;28;20027;-68
2022/04/20 01:57:30;;;;;;;12.10;9.27;;;;;;;;;;5107252;28;20027;-69
2022/04/20 01:59:57;;;;;;;13.40;8.90;;;;;;;;;;5107233;28;20035;-68
2022/04/20 02:02:38;;;;;;;19.60;10.67;;;;;;;;;;5107368;28;20027;-69
2022/04/20 02:05:08;;;;;;;38.00;22.33;;;;;;;;;;5092114;28;20028;-68
2022/04/20 02:07:35;;;;;;;34.20;19.83;;;;;;;;;;5091960;28;20055;-68
2022/04/20 02:10:03;;;;;;;15.07;9.50;;;;;;;;;;5091919;28;20012;-68
2022/04/20 02:12:30;;;;;;;18.33;12.07;;;;;;;;;;5091829;28;20145;-68
2022/04/20 02:14:57;;;;;;;25.83;17.07;;;;;;;;;;5097039;28;20012;-68
2022/04/20 02:17:24;;;;;;;24.90;14.20;;;;;;;;;;5106647;28;20066;-68
2022/04/20 02:19:52;;;;;;;14.93;8.83;;;;;;;;;;5106928;28;20483;-68
2022/04/20 02:22:19;;;;;;;9.20;6.97;;;;;;;;;;5106947;28;20024;-68
2022/04/20 02:24:46;;;;;;;12.40;8.03;;;;;;;;;;5106634;28;20083;-68
2022/04/20 02:27:14;;;;;;;12.73;7.73;;;;;;;;;;5107493;28;20028;-68
2022/04/20 02:29:40;;;;;;;11.20;6.90;;;;;;;;;;5115812;28;20032;-69
2022/04/20 02:32:09;;;;;;;14.83;7.87;;;;;;;;;;5116156;28;20024;-68
2022/04/20 02:34:36;;;;;;;10.50;6.83;;;;;;;;;;5116147;28;20378;-68
2022/04/20 02:37:04;;;;;;;11.80;6.90;;;;;;;;;;5115565;28;20043;-68
2022/04/20 02:39:31;;;;;;;9.23;6.00;;;;;;;;;;5115769;28;20085;-68
2022/04/20 02:41:58;;;;;;;9.80;6.17;;;;;;;;;;5110944;28;20019;-68
2022/04/20 02:44:26;;;;;;;11.63;6.13;;;;;;;;;;5110764;28;20039;-68
2022/04/20 02:46:53;;;;;;;10.20;6.23;;;;;;;;;;5110775;28;20016;-68
2022/04/20 02:49:21;;;;;;;10.80;6.50;;;;;;;;;;5110392;28;20042;-69
2022/04/20 02:51:48;;;;;;;9.47;5.70;;;;;;;;;;5110559;28;20492;-68
2022/04/20 02:54:15;;;;;;;9.47;6.37;;;;;;;;;;5115961;28;20023;-68
2022/04/20 02:56:42;;;;;;;9.13;6.73;;;;;;;;;;5115763;28;20035;-68
2022/04/20 02:59:09;;;;;;;13.77;7.50;;;;;;;;;;5115525;28;20027;-68
2022/04/20 03:01:37;;;;;;;11.37;7.17;;;;;;;;;;5115257;28;20034;-67
2022/04/20 03:04:04;;;;;;;10.53;7.30;;;;;;;;;;5115299;28;20039;-67
2022/04/20 03:06:31;;;;;;;12.97;7.33;;;;;;;;;;5111299;28;20020;-68
2022/04/20 03:08:58;;;;;;;10.87;7.23;;;;;;;;;;5110125;28;20031;-68
2022/04/20 03:11:26;;;;;;;11.33;7.23;;;;;;;;;;5110269;28;20091;-68
2022/04/20 03:13:53;;;;;;;17.40;7.27;;;;;;;;;;5110092;28;20034;-68
2022/04/20 03:16:21;;;;;;;10.90;6.93;;;;;;;;;;5110062;28;20023;-68
2022/04/20 03:18:49;;;;;;;9.67;6.23;;;;;;;;;;5114642;28;20031;-68
2022/04/20 03:21:16;;;;;;;11.20;6.70;;;;;;;;;;5115206;28;20162;-68
2022/04/20 03:23:43;;;;;;;11.57;5.87;;;;;;;;;;5114589;28;20470;-68
2022/04/20 03:26:10;;;;;;;9.47;7.13;;;;;;;;;;5115195;28;20031;-68
2022/04/20 03:28:37;;;;;;;8.93;5.90;;;;;;;;;;5115096;28;20038;-70
2022/04/20 03:31:05;;;;;;;11.57;6.07;;;;;;;;;;5111503;28;20541;-70
2022/04/20 03:33:32;;;;;;;10.10;6.77;;;;;;;;;;5110053;28;20204;-70
2022/04/20 03:35:59;;;;;;;11.13;7.13;;;;;;;;;;5109398;28;20016;-70
2022/04/20 03:38:27;;;;;;;13.77;7.20;;;;;;;;;;5109711;28;20016;-67
2022/04/20 03:40:54;;;;;;;12.73;6.87;;;;;;;;;;5109080;28;20024;-68
2022/04/20 03:43:21;;;;;;;10.07;7.10;;;;;;;;;;5113491;28;20042;-68
2022/04/20 03:45:49;;;;;;;8.13;5.33;;;;;;;;;;5114817;28;20437;-67
2022/04/20 03:48:16;;;;;;;10.93;6.50;;;;;;;;;;5114143;28;20027;-67
2022/04/20 03:50:43;;;;;;;10.93;6.47;;;;;;;;;;5114742;28;20023;-67
2022/04/20 03:53:10;;;;;;;11.70;7.03;;;;;;;;;;5114199;28;20024;-67
2022/04/20 03:55:37;;;;;;;10.60;7.37;;;;;;;;;;5111758;28;20074;-67
2022/04/20 03:58:04;;;;;;;11.77;7.23;;;;;;;;;;5109164;28;20077;-67
2022/04/20 04:00:31;;;;;;;20.10;6.40;;;;;;;;;;5108825;28;20035;-67
2022/04/20 04:02:58;;;;;;;10.80;7.23;;;;;;;;;;5109018;28;20089;-67
2022/04/20 04:05:25;;;;;;;12.30;7.60;;;;;;;;;;5109130;28;20031;-67
2022/04/20 04:07:52;;;;;;;13.03;6.87;;;;;;;;;;5112078;28;20020;-67
2022/04/20 04:10:19;;;;;;;15.17;7.90;;;;;;;;;;5114242;28;20103;-68
2022/04/20 04:12:46;;;;;;;10.50;7.43;;;;;;;;;;5114091;28;20027;-67
2022/04/20 04:15:13;;;;;;;10.20;7.03;;;;;;;;;;5114297;28;20027;-68
2022/04/20 04:17:40;;;;;;;11.57;7.57;;;;;;;;;;5113900;28;20038;-67
2022/04/20 04:20:08;;;;;;;13.47;8.07;;;;;;;;;;5111757;28;20063;-67
2022/04/20 04:22:37;;;;;;;12.73;7.00;;;;;;;;;;5108779;28;20088;-67
2022/04/20 04:25:04;;;;;;;15.27;7.47;;;;;;;;;;5108646;28;20079;-67
2022/04/20 04:27:31;;;;;;;14.40;7.30;;;;;;;;;;5108758;28;20026;-67
2022/04/20 04:30:00;;;;;;;13.43;7.70;;;;;;;;;;5108851;28;20015;-67
2022/04/20 04:32:27;;;;;;;12.47;7.87;;;;;;;;;;5110907;28;20015;-67
2022/04/20 04:34:54;;;;;;;9.37;7.20;;;;;;;;;;5113494;28;20106;-67
2022/04/20 04:37:20;;;;;;;11.47;6.70;;;;;;;;;;5113640;28;20067;-67
2022/04/20 04:39:47;;;;;;;8.83;6.03;;;;;;;;;;5113777;28;20032;-67
2022/04/20 04:42:14;;;;;;;9.90;6.53;;;;;;;;;;5113788;28;20072;-67
2022/04/20 04:44:41;;;;;;;13.20;7.77;;;;;;;;;;5111741;28;20031;-67
2022/04/20 04:49:53;;;;;;;11.93;6.47;;;;;;;;;;5108614;28;20051;-67
2022/04/20 04:52:20;;;;;;;12.20;7.63;;;;;;;;;;5107372;28;20016;-67
2022/04/20 04:54:47;;;;;;;16.93;8.50;;;;;;;;;;5108387;28;20160;-67
2022/04/20 04:57:14;;;;;;;19.80;7.40;;;;;;;;;;5110398;28;20032;-67
2022/04/20 04:59:42;;;;;;;11.67;6.23;;;;;;;;;;5113289;28;20031;-66
2022/04/20 05:02:10;;;;;;;16.30;7.33;;;;;;;;;;5094381;28;20047;-67
2022/04/20 05:04:38;;;;;;;11.37;6.70;;;;;;;;;;5113276;28;20028;-66
2022/04/20 05:07:05;;;;;;;10.70;7.27;;;;;;;;;;5113282;28;20043;-66
2022/04/20 05:09:31;;;;;;;9.97;6.23;;;;;;;;;;5111045;28;20474;-67
2022/04/20 05:11:58;;;;;;;11.47;6.33;;;;;;;;;;5107967;28;20015;-67
2022/04/20 05:14:25;;;;;;;10.30;6.37;;;;;;;;;;5107947;28;20028;-67
2022/04/20 05:16:52;;;;;;;10.93;6.77;;;;;;;;;;5107935;28;20019;-66
2022/04/20 05:19:19;;;;;;;8.27;5.90;;;;;;;;;;5107077;28;20074;-66
2022/04/20 05:21:45;;;;;;;12.17;6.83;;;;;;;;;;5109265;28;20028;-66
2022/04/20 05:24:12;;;;;;;8.33;5.53;;;;;;;;;;5112738;28;20068;-66
2022/04/20 05:26:40;;;;;;;12.07;7.37;;;;;;;;;;5112893;28;20031;-66
2022/04/20 05:29:07;;;;;;;12.97;6.97;;;;;;;;;;5112833;28;20103;-66
2022/04/20 05:31:34;;;;;;;13.03;6.80;;;;;;;;;;5112872;28;20023;-66
2022/04/20 05:34:02;;;;;;;8.60;5.90;;;;;;;;;;5111539;28;20027;-66
2022/04/20 05:41:39;;;;;;;12.37;6.40;;;;;;;;;;5106947;28;20459;-66
2022/04/20 05:42:01;;;;;;;12.00;6.30;;;;;;;;;;5107562;28;20038;-66
2022/04/20 05:44:27;;;;;;;13.03;7.30;;;;;;;;;;5106783;28;20039;-66
2022/04/20 05:46:54;;;;;;;13.47;7.40;;;;;;;;;;5109918;28;20016;-66
2022/04/20 05:49:21;;;;;;;12.10;6.63;;;;;;;;;;5112647;28;20027;-66
2022/04/20 05:51:48;;;;;;;10.27;5.90;;;;;;;;;;5112211;28;20028;-66
2022/04/20 05:54:14;;;;;;;14.27;7.37;;;;;;;;;;5112640;28;20027;-65
2022/04/20 05:56:41;;;;;;;9.37;6.13;;;;;;;;;;5112188;28;20020;-66
2022/04/20 05:59:08;;;;;;;10.20;6.53;;;;;;;;;;5111073;28;20371;-66
2022/04/20 06:01:34;;;;;;;9.47;6.30;;;;;;;;;;5106795;28;20034;-66
2022/04/20 06:04:01;;;;;;;12.70;6.73;;;;;;;;;;5112798;28;20106;-66
2022/04/20 06:06:28;;;;;;;11.00;6.90;;;;;;;;;;5113884;28;20027;-66
2022/04/20 06:08:54;;;;;;;10.07;6.17;;;;;;;;;;5113819;28;20016;-66
2022/04/20 06:11:21;;;;;;;13.93;6.43;;;;;;;;;;5115691;28;20028;-65
2022/04/20 06:13:48;;;;;;;11.00;6.30;;;;;;;;;;5118847;28;20028;-66
2022/04/20 06:16:14;;;;;;;10.47;7.40;;;;;;;;;;5118643;28;20470;-65
2022/04/20 06:18:41;;;;;;;12.67;6.07;;;;;;;;;;5116880;28;20116;-66
2022/04/20 06:21:07;;;;;;;11.00;6.00;;;;;;;;;;5117621;28;20027;-65
2022/04/20 06:23:34;;;;;;;11.70;7.10;;;;;;;;;;5118803;28;20378;-66
2022/04/20 06:26:01;;;;;;;9.63;6.50;;;;;;;;;;5113543;28;20030;-65
2022/04/20 06:28:28;;;;;;;10.90;6.67;;;;;;;;;;5114062;28;20032;-65
2022/04/20 06:30:56;;;;;;;9.80;6.60;;;;;;;;;;5114124;28;20055;-65
2022/04/20 06:33:23;;;;;;;10.77;7.00;;;;;;;;;;5114094;28;20110;-64
2022/04/20 06:35:51;;;;;;;9.33;6.03;;;;;;;;;;5113956;28;20030;-65
2022/04/20 06:38:17;;;;;;;11.20;6.60;;;;;;;;;;5119063;28;20015;-64
2022/04/20 06:40:44;;;;;;;10.63;6.87;;;;;;;;;;5118589;28;20114;-65
2022/04/20 06:43:11;;;;;;;12.43;7.33;;;;;;;;;;5092200;28;20395;-65
2022/04/20 06:45:37;;;;;;;11.03;6.70;;;;;;;;;;5108912;28;20024;-65
2022/04/20 06:48:04;;;;;;;12.37;7.23;;;;;;;;;;5098584;28;20028;-65
2022/04/20 06:50:31;;;;;;;11.03;7.47;;;;;;;;;;5104249;28;20028;-65
2022/04/20 06:58:38;;;;;;;;;;;;;;;;;;5113303;28;20038;-65
2022/04/20 07:01:07;;;;;;;12.23;6.67;;;;;;;;;;5115339;28;19935;-65
2022/04/20 07:03:34;;;;;;;12.93;7.30;;;;;;;;;;5118477;28;20041;-65
2022/04/20 07:06:01;;;;;;;18.23;7.53;;;;;;;;;;5118500;28;20056;-65
2022/04/20 07:08:28;;;;;;;10.83;7.30;;;;;;;;;;5118763;28;20099;-65
2022/04/20 07:10:55;;;;;;;11.43;7.70;;;;;;;;;;5118583;28;20016;-65
2022/04/20 07:13:22;;;;;;;10.23;6.80;;;;;;;;;;5117440;28;20026;-65
2022/04/20 07:18:53;;;;;;;10.93;6.93;;;;;;;;;;5110116;28;20058;-66
2022/04/20 07:21:20;;;;;;;10.03;6.17;;;;;;;;;;5110326;28;20428;-65
2022/04/20 07:23:47;;;;;;;11.83;6.50;;;;;;;;;;5109545;28;20039;-65
2022/04/20 07:26:13;;;;;;;12.97;6.17;;;;;;;;;;5112734;28;20019;-65
2022/04/20 07:28:40;;;;;;;8.97;5.73;;;;;;;;;;5115151;28;20054;-65
2022/04/20 07:31:07;;;;;;;10.00;6.67;;;;;;;;;;5115094;28;20118;-65
2022/04/20 07:33:35;;;;;;;14.00;7.67;;;;;;;;;;5115083;28;20038;-65
2022/04/20 07:36:02;;;;;;;12.63;7.37;;;;;;;;;;5114629;28;20442;-65
2022/04/20 07:38:28;;;;;;;12.47;7.17;;;;;;;;;;5113170;28;20144;-65
2022/04/20 07:40:55;;;;;;;9.17;6.60;;;;;;;;;;5109508;28;20060;-65
2022/04/20 07:43:21;;;;;;;10.43;6.87;;;;;;;;;;5109896;28;20020;-65
2022/04/20 07:45:48;;;;;;;11.27;6.17;;;;;;;;;;5109669;28;20460;-65
2022/04/20 07:48:15;;;;;;;9.87;6.33;;;;;;;;;;5109338;28;20471;-65
2022/04/20 07:50:41;;;;;;;10.90;6.90;;;;;;;;;;5111642;28;20048;-65
2022/04/20 07:53:08;;;;;;;9.57;6.57;;;;;;;;;;5114603;28;20028;-65
2022/04/20 07:55:37;;;;;;;7.93;5.37;;;;;;;;;;5114682;28;20031;-65
2022/04/20 07:58:04;;;;;;;9.63;5.57;;;;;;;;;;5114167;28;20076;-65
2022/04/20 08:00:30;;;;;;;10.43;5.90;;;;;;;;;;5114115;28;20363;-65
2022/04/20 08:03:14;;;;;;;11.07;6.93;;;;;;;;;;5113695;28;20081;-65
2022/04/20 08:05:41;;;;;;;9.07;5.97;;;;;;;;;;5109308;28;20370;-64
2022/04/20 08:08:09;;;;;;;11.50;6.53;;;;;;;;;;5109373;28;20019;-66
2022/04/20 08:10:35;;;;;;;12.00;6.43;;;;;;;;;;5108634;28;20107;-65
2022/04/20 08:14:09;;;;;;;10.50;6.60;;;;;;;;;;5109103;28;20032;-66
2022/04/20 08:15:48;;;;;;;9.90;6.20;;;;;;;;;;5111445;28;20110;-65
2022/04/20 08:18:15;;;;;;;8.67;5.07;;;;;;;;;;5114110;28;20103;-66
2022/04/20 08:20:42;;;;;;;9.57;6.10;;;;;;;;;;5114156;28;20047;-65
2022/04/20 08:23:08;;;;;;;9.47;6.33;;;;;;;;;;5113521;28;20534;-65
2022/04/20 08:25:35;;;;;;;8.87;4.90;;;;;;;;;;5113467;28;20070;-65
2022/04/20 08:28:02;;;;;;;14.80;6.20;;;;;;;;;;5112269;28;20054;-65
2022/04/20 08:30:28;;;;;;;9.27;6.03;;;;;;;;;;5108889;28;20024;-65
2022/04/20 08:32:55;;;;;;;11.87;6.50;;;;;;;;;;5108962;28;20378;-65
2022/04/20 08:35:21;;;;;;;10.57;6.33;;;;;;;;;;5108337;28;20526;-64
2022/04/20 08:37:48;;;;;;;10.33;5.93;;;;;;;;;;5108863;28;20057;-65
2022/04/20 08:40:15;;;;;;;11.90;5.90;;;;;;;;;;5109782;28;20486;-64
2022/04/20 08:42:43;;;;;;;10.13;6.70;;;;;;;;;;5112907;28;20366;-65
2022/04/20 08:45:11;;;;;;;9.73;7.00;;;;;;;;;;5113682;28;20058;-65
2022/04/20 08:47:39;;;;;;;10.43;6.47;;;;;;;;;;5113767;28;20080;-65
2022/04/20 08:50:06;;;;;;;10.43;6.93;;;;;;;;;;5113680;28;20019;-65
2022/04/20 08:52:41;;;;;;;10.43;5.80;;;;;;;;;;5112151;28;20032;-66
2022/04/20 08:55:10;;;;;;;10.18;6.20;;;;;;;;;;5107585;28;20399;-66
2022/04/20 08:57:37;;;;;;;11.00;6.97;;;;;;;;;;5108560;28;20038;-65
2022/04/20 09:00:05;;;;;;;13.27;6.93;;;;;;;;;;5108058;28;20028;-65
2022/04/20 09:02:32;;;;;;;10.80;6.00;;;;;;;;;;5108614;28;20378;-65
2022/04/20 09:04:59;;;;;;;10.30;6.23;;;;;;;;;;5109881;28;20449;-65
2022/04/20 09:07:25;;;;;;;14.47;6.23;;;;;;;;;;5113153;28;20019;-66
2022/04/20 09:09:52;;;;;;;16.17;6.80;;;;;;;;;;5113030;28;20060;-65
2022/04/20 09:12:20;;;;;;;11.77;6.73;;;;;;;;;;5113069;28;20015;-64
2022/04/20 09:14:50;;;;;;;9.07;5.60;;;;;;;;;;5113337;28;20055;-65
2022/04/20 09:17:18;;;;;;;9.40;6.23;;;;;;;;;;5111630;28;21357;-66
2022/04/20 09:19:46;;;;;;;10.97;5.93;;;;;;;;;;5108000;28;20386;-65
2022/04/20 09:22:29;;;;;;;12.47;6.37;;;;;;;;;;5107886;28;20045;-65
2022/04/20 09:24:58;;;;;;;9.20;5.70;;;;;;;;;;5107940;28;20051;-65
2022/04/20 09:27:30;;;;;;;9.13;5.83;;;;;;;;;;5107989;28;20031;-64
2022/04/20 09:29:57;;;;;;;9.77;6.50;;;;;;;;;;5109658;28;20080;-64
2022/04/20 09:32:30;;;;;;;9.73;5.90;;;;;;;;;;5112768;28;20019;-65
2022/04/20 09:35:03;;;;;;;9.93;6.20;;;;;;;;;;5112512;28;20034;-65
2022/04/20 09:37:31;;;;;;;11.57;6.80;;;;;;;;;;5112233;28;20466;-65
2022/04/20 09:39:57;;;;;;;14.73;6.83;;;;;;;;;;5112293;28;20035;-65
2022/04/20 09:42:24;;;;;;;10.63;5.77;;;;;;;;;;5110794;28;20127;-65
2022/04/20 09:44:54;;;;;;;9.37;5.50;;;;;;;;;;5107426;28;20023;-64
2022/04/20 09:50:10;;;;;;;12.30;7.10;;;;;;;;;;5107547;28;20042;-66
2022/04/20 09:52:41;;;;;;;11.40;8.27;;;;;;;;;;5106840;28;20023;-64
2022/04/20 09:55:08;;;;;;;12.40;6.63;;;;;;;;;;5110247;28;20024;-65
2022/04/20 09:57:37;;;;;;;9.03;6.30;;;;;;;;;;5112568;28;20529;-65
2022/04/20 10:00:11;;;;;;;10.47;6.87;;;;;;;;;;5112583;28;20470;-64
2022/04/20 10:02:38;;;;;;;12.83;7.63;;;;;;;;;;5112559;28;20470;-65
2022/04/20 10:05:05;;;;;;;13.73;6.97;;;;;;;;;;5112318;28;20028;-65
2022/04/20 10:07:32;;;;;;;14.60;6.37;;;;;;;;;;5109884;28;20035;-65
2022/04/20 10:09:59;;;;;;;9.63;5.53;;;;;;;;;;5107111;28;20024;-64
2022/04/20 10:12:26;;;;;;;11.20;5.23;;;;;;;;;;5107406;28;20537;-64
2022/04/20 10:17:46;;;;;;;11.97;7.97;;;;;;;;;;5107003;28;20046;-64
2022/04/20 10:20:14;;;;;;;11.30;7.13;;;;;;;;;;5110642;28;20036;-64
2022/04/20 10:22:42;;;;;;;10.47;7.17;;;;;;;;;;5112253;28;20114;-64
2022/04/20 10:25:09;;;;;;;12.97;7.50;;;;;;;;;;5112318;28;20027;-64
2022/04/20 10:27:36;;;;;;;15.90;9.33;;;;;;;;;;5111764;28;20020;-65
2022/04/20 10:30:04;;;;;;;15.07;9.17;;;;;;;;;;5112302;28;20019;-64
2022/04/20 10:32:49;;;;;;;15.77;8.73;;;;;;;;;;5109493;28;20398;-64
2022/04/20 10:35:16;;;;;;;13.63;8.00;;;;;;;;;;5107120;28;20043;-64
2022/04/20 10:38:03;;;;;;;14.87;8.73;;;;;;;;;;5106423;28;20032;-65
2022/04/20 10:40:29;;;;;;;15.33;9.07;;;;;;;;;;5106914;28;20425;-64
2022/04/20 10:43:14;;;;;;;17.73;9.27;;;;;;;;;;5106814;28;20023;-64
2022/04/20 10:46:01;;;;;;;13.80;8.90;;;;;;;;;;5111905;28;20084;-64
2022/04/20 10:48:27;;;;;;;19.43;10.80;;;;;;;;;;5111874;28;20378;-64
2022/04/20 10:51:14;;;;;;;15.50;8.10;;;;;;;;;;5114397;28;20020;-65
2022/04/20 10:53:48;;;;;;;16.50;9.60;;;;;;;;;;5115247;28;20421;-64
2022/04/20 10:56:15;;;;;;;15.43;10.07;;;;;;;;;;5115334;28;20024;-64
2022/04/20 10:58:52;;;;;;;17.47;10.23;;;;;;;;;;5110742;28;20040;-64
2022/04/20 11:01:18;;;;;;;17.80;9.97;;;;;;;;;;5110132;28;20099;-65
2022/04/20 11:04:08;;;;;;;15.37;10.13;;;;;;;;;;5110572;28;20498;-64
2022/04/20 11:06:53;;;;;;;20.90;12.27;;;;;;;;;;5099961;28;20769;-64
2022/04/20 11:09:38;;;;;;;22.83;12.88;;;;;;;;;;5113190;28;20038;-65
2022/04/20 11:21:01;;;;;;;29.70;13.60;;;;;;;;;;5115436;28;20046;-63
2022/04/20 11:23:46;;;;;;;29.13;13.68;;;;;;;;;;5110281;28;20030;-65
2022/04/20 11:26:14;;;;;;;24.98;12.98;;;;;;;;;;5109572;28;20402;-64
2022/04/20 11:28:41;;;;;;;22.17;12.37;;;;;;;;;;5109833;28;20107;-64
2022/04/20 11:31:09;;;;;;;23.70;13.57;;;;;;;;;;5110022;28;20256;-64
2022/04/20 11:33:36;;;;;;;22.20;12.77;;;;;;;;;;5111397;28;20734;-63
2022/04/20 11:36:03;;;;;;;21.83;13.07;;;;;;;;;;5115014;28;20372;-64
2022/04/20 11:38:36;;;;;;;22.50;11.63;;;;;;;;;;5114882;28;20024;-64
2022/04/20 11:41:04;;;;;;;23.23;12.77;;;;;;;;;;5115074;28;20745;-64
2022/04/20 11:43:31;;;;;;;18.23;11.70;;;;;;;;;;5114869;28;20719;-64
2022/04/20 11:45:58;;;;;;;20.67;11.80;;;;;;;;;;5113746;28;20252;-64
2022/04/20 11:48:25;;;;;;;23.40;12.30;;;;;;;;;;5109654;28;20256;-64
2022/04/20 11:50:59;;;;;;;25.67;11.80;;;;;;;;;;5109316;28;20304;-64
2022/04/20 11:53:34;;;;;;;24.03;11.90;;;;;;;;;;5109628;28;20347;-64
2022/04/20 11:56:01;;;;;;;22.17;11.57;;;;;;;;;;5109635;28;20256;-64
2022/04/20 11:58:28;;;;;;;18.63;10.90;;;;;;;;;;5111585;28;20028;-64
2022/04/20 12:01:08;;;;;;;16.77;10.80;;;;;;;;;;5113592;28;20295;-64
2022/04/20 12:03:41;;;;;;;22.03;9.63;;;;;;;;;;5114301;28;20268;-64
2022/04/20 12:06:12;;;;;;;19.30;12.03;;;;;;;;;;5114791;28;20648;-64
2022/04/20 12:08:40;;;;;;;27.27;13.67;;;;;;;;;;5114292;28;20099;-64
2022/04/20 12:11:11;;;;;;;21.33;12.63;;;;;;;;;;5112079;28;20257;-65
2022/04/20 12:13:39;;;;;;;18.67;11.37;;;;;;;;;;5109204;28;20305;-64
2022/04/20 12:16:08;;;;;;;20.20;10.43;;;;;;;;;;5108706;28;20261;-64
2022/04/20 12:18:36;;;;;;;20.90;11.80;;;;;;;;;;5109063;28;21121;-65
2022/04/20 12:21:03;;;;;;;19.53;10.23;;;;;;;;;;5109123;28;20272;-64
2022/04/20 12:23:37;;;;;;;15.90;10.03;;;;;;;;;;5111763;28;20256;-64
2022/04/20 12:26:05;;;;;;;18.33;10.17;;;;;;;;;;5113606;28;20784;-65
2022/04/20 12:28:44;;;;;;;20.33;11.27;;;;;;;;;;5114138;28;20355;-64
2022/04/20 12:31:12;;;;;;;18.60;11.87;;;;;;;;;;5114014;28;20731;-64
2022/04/20 12:33:42;;;;;;;21.17;10.73;;;;;;;;;;5113976;28;20263;-64
2022/04/20 12:36:11;;;;;;;19.20;11.53;;;;;;;;;;5110810;28;20260;-64
2022/04/20 12:38:44;;;;;;;22.70;9.90;;;;;;;;;;5108584;28;20264;-63
2022/04/20 12:41:29;;;;;;;20.03;9.67;;;;;;;;;;5108669;28;20279;-64
2022/04/20 12:43:56;;;;;;;18.92;12.38;;;;;;;;;;5108583;28;20742;-63
2022/04/20 12:46:22;;;;;;;23.47;11.53;;;;;;;;;;5108514;28;20023;-63
2022/04/20 12:48:49;;;;;;;19.67;11.90;;;;;;;;;;5111789;28;20268;-63
2022/04/20 12:51:23;;;;;;;20.73;10.27;;;;;;;;;;5113289;28;20825;-63
2022/04/20 12:53:50;;;;;;;38.03;11.43;;;;;;;;;;5113597;28;20335;-63
2022/04/20 13:02:04;;;;;;;;;;;;;;;;;;5070370;28;20472;-62
2022/04/20 13:04:31;;;;;;;12.00;7.07;;;;;;;;;;5108024;28;19904;-63
2022/04/20 13:06:57;;;;;;;11.37;7.70;;;;;;;;;;5107635;28;20265;-63
2022/04/20 13:09:25;;;;;;;16.00;9.30;;;;;;;;;;5108184;28;20754;-63
2022/04/20 13:11:52;;;;;;;20.37;8.83;;;;;;;;;;5107633;28;20363;-63
2022/04/20 13:14:19;;;;;;;17.93;9.60;;;;;;;;;;5112775;28;20393;-66
2022/04/20 13:16:45;;;;;;;12.60;7.90;;;;;;;;;;5112608;28;20749;-66
2022/04/20 13:19:12;;;;;;;19.30;10.10;;;;;;;;;;5113117;28;20283;-66
2022/04/20 13:21:42;;;;;;;20.77;9.60;;;;;;;;;;5112858;28;20276;-66
2022/04/20 13:24:08;;;;;;;16.37;9.10;;;;;;;;;;5113039;28;20076;-64
2022/04/20 13:29:22;;;;;;;26.40;16.38;;;;;;;;;;5108104;28;20092;-64
2022/04/20 13:31:49;;;;;;;20.83;13.87;;;;;;;;;;5107585;28;20059;-64
2022/04/20 13:34:16;;;;;;;19.90;13.23;;;;;;;;;;5107275;28;20498;-65
2022/04/20 13:36:43;;;;;;;23.80;13.50;;;;;;;;;;5108066;28;20471;-64
2022/04/20 13:39:09;;;;;;;17.83;12.23;;;;;;;;;;5112414;28;20035;-64
2022/04/20 13:41:36;;;;;;;25.00;12.87;;;;;;;;;;5112768;28;20016;-65
2022/04/20 13:44:04;;;;;;;18.60;12.30;;;;;;;;;;5112829;28;20066;-64
2022/04/20 13:46:30;;;;;;;21.67;13.03;;;;;;;;;;5112219;28;20448;-65
2022/04/20 13:48:57;;;;;;;28.90;12.70;;;;;;;;;;5111723;28;20106;-65
2022/04/20 13:51:23;;;;;;;22.33;13.60;;;;;;;;;;5107316;28;20023;-65
2022/04/20 13:53:50;;;;;;;17.80;11.47;;;;;;;;;;5107492;28;20102;-65
2022/04/20 13:56:17;;;;;;;18.63;11.07;;;;;;;;;;5107249;28;20019;-66
2022/04/20 13:58:46;;;;;;;20.47;11.67;;;;;;;;;;5106924;28;20103;-65
2022/04/20 14:01:12;;;;;;;23.33;11.30;;;;;;;;;;5107186;28;20030;-67
2022/04/20 14:03:39;;;;;;;23.70;10.37;;;;;;;;;;5112416;28;20084;-66
2022/04/20 14:06:06;;;;;;;17.37;10.27;;;;;;;;;;5111570;28;20482;-65
2022/04/20 14:08:32;;;;;;;16.33;9.30;;;;;;;;;;5111592;28;20092;-67
2022/04/20 14:10:59;;;;;;;15.83;10.50;;;;;;;;;;5112327;28;20114;-65
2022/04/20 14:13:26;;;;;;;15.83;10.17;;;;;;;;;;5112272;28;20092;-65
2022/04/20 14:15:52;;;;;;;13.57;8.03;;;;;;;;;;5108058;28;20051;-65
2022/04/20 14:18:19;;;;;;;15.70;7.87;;;;;;;;;;5107188;28;20024;-65
2022/04/20 14:20:46;;;;;;;13.87;7.97;;;;;;;;;;5106795;28;20530;-67
2022/04/20 14:23:13;;;;;;;13.33;8.37;;;;;;;;;;5099037;28;20092;-66
2022/04/20 14:33:54;;;;;;;11.73;6.73;;;;;;;;;;5116017;28;19911;-66
2022/04/20 14:36:21;;;;;;;10.90;6.37;;;;;;;;;;5116216;28;20027;-66
2022/04/20 14:38:47;;;;;;;9.30;7.17;;;;;;;;;;5115761;28;20064;-66
2022/04/20 14:41:14;;;;;;;10.20;6.70;;;;;;;;;;5110828;28;20028;-66
2022/04/20 14:43:41;;;;;;;11.27;6.80;;;;;;;;;;5110272;28;20034;-66
2022/04/20 14:46:07;;;;;;;8.80;6.07;;;;;;;;;;5110470;28;20023;-66
2022/04/20 14:48:34;;;;;;;9.80;6.67;;;;;;;;;;5110707;28;20031;-66
2022/04/20 14:51:01;;;;;;;10.27;7.13;;;;;;;;;;5111363;28;20532;-66
2022/04/20 14:53:28;;;;;;;12.10;6.97;;;;;;;;;;5115816;28;20030;-66
2022/04/20 14:55:55;;;;;;;11.47;6.53;;;;;;;;;;5115683;28;20020;-67
2022/04/20 14:58:22;;;;;;;11.70;7.00;;;;;;;;;;5114832;28;20062;-66
2022/04/20 15:00:48;;;;;;;14.07;6.83;;;;;;;;;;5115903;28;20039;-67
2022/04/20 15:03:15;;;;;;;10.50;6.33;;;;;;;;;;5115888;28;20028;-66
2022/04/20 15:05:42;;;;;;;14.53;5.57;;;;;;;;;;5110380;28;20030;-67
2022/04/20 15:08:08;;;;;;;8.07;5.03;;;;;;;;;;5110476;28;20076;-68
2022/04/20 15:10:37;;;;;;;9.30;4.73;;;;;;;;;;5109996;28;20466;-67
2022/04/20 15:13:04;;;;;;;11.50;5.70;;;;;;;;;;5110246;28;20040;-67
2022/04/20 15:15:31;;;;;;;9.60;6.20;;;;;;;;;;5109992;28;20330;-67
2022/04/20 15:17:59;;;;;;;14.83;7.03;;;;;;;;;;5115422;28;20027;-67
2022/04/20 15:20:26;;;;;;;8.47;5.97;;;;;;;;;;5115081;28;20028;-67
2022/04/20 15:22:52;;;;;;;9.67;6.73;;;;;;;;;;5115264;28;20070;-67